sensor_id;sensor_type;location;lat;lon;timestamp;P1;durP1;ratioP1;P2;durP2;ratioP2
12222;SDS011;6174;49.058;8.524;2022-11-20T06:01:04;3.27;;;2.97;;
12222;SDS011;6174;49.058;8.524;2022-11-20T06:03:32;4.23;;;3.43;;
12222;SDS011;6174;49.058;8.524;2022-11-20T06:05:59;3.37;;;3.07;;
12222;SDS011;6174;49.058;8.524;2022-11-20T06:08:26;3.40;;;3.10;;
12222;SDS011;6174;49.058;8.524;2022-11-20T06:10:53;3.10;;;2.80;;
12222;SDS011;6174;49.058;8.524;2022-11-20T06:13:20;3.97;;;3.20;;
12222;SDS011;6174;49.058;8.524;2022-11-20T06:15:48;4.53;;;3.60;;
12222;SDS011;6174;49.058;8.524;2022-11-20T06:18:17;2.93;;;2.73;;
12222;SDS011;6174;49.058;8.524;2022-11-20T06:20:44;3.37;;;2.80;;
12222;SDS011;6174;49.058;8.524;2022-11-20T06:23:11;3.40;;;2.70;;
12222;SDS011;6174;49.058;8.524;2022-11-20T06:25:38;2.97;;;2.67;;
12222;SDS011;6174;49.058;8.524;2022-11-20T06:28:06;2.90;;;2.60;;
12222;SDS011;6174;49.058;8.524;2022-11-20T06:30:33;3.23;;;2.80;;
12222;SDS011;6174;49.058;8.524;2022-11-20T06:33:00;3.03;;;2.80;;
12222;SDS011;6174;49.058;8.524;2022-11-20T06:35:28;3.23;;;2.80;;
12222;SDS011;6174;49.058;8.524;2022-11-20T06:37:55;3.20;;;2.37;;
12222;SDS011;6174;49.058;8.524;2022-11-20T06:40:22;2.70;;;2.43;;
12222;SDS011;6174;49.058;8.524;2022-11-20T06:42:49;2.77;;;2.57;;
12222;SDS011;6174;49.058;8.524;2022-11-20T06:45:15;2.87;;;2.60;;
12222;SDS011;6174;49.058;8.524;2022-11-20T06:47:42;2.67;;;2.47;;
12222;SDS011;6174;49.058;8.524;2022-11-20T06:50:09;2.70;;;2.50;;
12222;SDS011;6174;49.058;8.524;2022-11-20T06:52:37;2.90;;;2.40;;
12222;SDS011;6174;49.058;8.524;2022-11-20T06:55:04;2.60;;;2.40;;
12222;SDS011;6174;49.058;8.524;2022-11-20T06:57:31;3.70;;;3.00;;
12222;SDS011;6174;49.058;8.524;2022-11-20T06:59:58;3.27;;;2.53;;
12222;SDS011;6174;49.058;8.524;2022-11-20T07:02:25;2.90;;;2.30;;
12222;SDS011;6174;49.058;8.524;2022-11-20T07:04:52;2.90;;;2.63;;
12222;SDS011;6174;49.058;8.524;2022-11-20T07:07:18;4.13;;;2.53;;
12222;SDS011;6174;49.058;8.524;2022-11-20T07:09:46;2.50;;;2.30;;
12222;SDS011;6174;49.058;8.524;2022-11-20T07:12:13;3.37;;;2.60;;
12222;SDS011;6174;49.058;8.524;2022-11-20T07:14:40;2.70;;;2.50;;
12222;SDS011;6174;49.058;8.524;2022-11-20T07:17:07;4.67;;;2.87;;
12222;SDS011;6174;49.058;8.524;2022-11-20T07:19:33;3.33;;;2.60;;
12222;SDS011;6174;49.058;8.524;2022-11-20T07:22:00;2.60;;;2.30;;
12222;SDS011;6174;49.058;8.524;2022-11-20T07:24:27;2.83;;;2.57;;
12222;SDS011;6174;49.058;8.524;2022-11-20T07:26:55;2.50;;;2.30;;
12222;SDS011;6174;49.058;8.524;2022-11-20T07:29:22;2.70;;;2.50;;
12222;SDS011;6174;49.058;8.524;2022-11-20T07:31:48;2.47;;;2.27;;
12222;SDS011;6174;49.058;8.524;2022-11-20T07:34:15;2.93;;;2.47;;
12222;SDS011;6174;49.058;8.524;2022-11-20T07:36:42;3.10;;;2.10;;
12222;SDS011;6174;49.058;8.524;2022-11-20T07:39:08;3.87;;;3.00;;
12222;SDS011;6174;49.058;8.524;2022-11-20T07:41:35;3.57;;;2.57;;
12222;SDS011;6174;49.058;8.524;2022-11-20T07:44:03;3.27;;;2.50;;
12222;SDS011;6174;49.058;8.524;2022-11-20T07:46:30;4.23;;;3.70;;
12222;SDS011;6174;49.058;8.524;2022-11-20T07:48:57;4.20;;;2.87;;
12222;SDS011;6174;49.058;8.524;2022-11-20T07:51:24;3.43;;;2.83;;
12222;SDS011;6174;49.058;8.524;2022-11-20T07:53:52;5.20;;;3.60;;
12222;SDS011;6174;49.058;8.524;2022-11-20T07:56:19;3.20;;;2.60;;
12222;SDS011;6174;49.058;8.524;2022-11-20T07:58:45;2.87;;;2.67;;
12222;SDS011;6174;49.058;8.524;2022-11-20T08:01:14;3.40;;;3.10;;
12222;SDS011;6174;49.058;8.524;2022-11-20T08:03:40;4.17;;;3.77;;
12222;SDS011;6174;49.058;8.524;2022-11-20T08:06:07;3.27;;;2.57;;
12222;SDS011;6174;49.058;8.524;2022-11-20T08:08:34;2.83;;;2.47;;
12222;SDS011;6174;49.058;8.524;2022-11-20T08:11:01;3.67;;;3.00;;
12222;SDS011;6174;49.058;8.524;2022-11-20T08:13:45;4.20;;;2.70;;
12222;SDS011;6174;49.058;8.524;2022-11-20T08:16:30;3.03;;;2.70;;
12222;SDS011;6174;49.058;8.524;2022-11-20T08:18:57;3.00;;;2.70;;
12222;SDS011;6174;49.058;8.524;2022-11-20T08:21:24;3.63;;;3.33;;
12222;SDS011;6174;49.058;8.524;2022-11-20T08:23:50;3.27;;;2.97;;
12222;SDS011;6174;49.058;8.524;2022-11-20T08:26:17;6.17;;;4.20;;
12222;SDS011;6174;49.058;8.524;2022-11-20T08:28:44;3.37;;;3.00;;
12222;SDS011;6174;49.058;8.524;2022-11-20T08:31:11;3.20;;;3.00;;
12222;SDS011;6174;49.058;8.524;2022-11-20T08:33:39;3.53;;;3.10;;
12222;SDS011;6174;49.058;8.524;2022-11-20T08:36:06;3.50;;;3.20;;
12222;SDS011;6174;49.058;8.524;2022-11-20T08:38:33;3.77;;;3.47;;
12222;SDS011;6174;49.058;8.524;2022-11-20T08:41:00;4.00;;;3.10;;
12222;SDS011;6174;49.058;8.524;2022-11-20T08:43:46;3.60;;;3.30;;
12222;SDS011;6174;49.058;8.524;2022-11-20T08:46:13;3.70;;;3.40;;
12222;SDS011;6174;49.058;8.524;2022-11-20T08:48:41;3.30;;;3.00;;
12222;SDS011;6174;49.058;8.524;2022-11-20T08:51:09;3.53;;;3.10;;
12222;SDS011;6174;49.058;8.524;2022-11-20T08:53:38;3.47;;;3.10;;
12222;SDS011;6174;49.058;8.524;2022-11-20T08:56:06;3.80;;;3.47;;
12222;SDS011;6174;49.058;8.524;2022-11-20T08:58:34;3.43;;;3.13;;
12222;SDS011;6174;49.058;8.524;2022-11-20T09:01:01;4.40;;;3.07;;
12222;SDS011;6174;49.058;8.524;2022-11-20T09:03:28;3.23;;;2.93;;
12222;SDS011;6174;49.058;8.524;2022-11-20T09:05:58;3.50;;;3.20;;
12222;SDS011;6174;49.058;8.524;2022-11-20T09:08:25;3.50;;;3.20;;
12222;SDS011;6174;49.058;8.524;2022-11-20T09:10:52;4.10;;;3.30;;
12222;SDS011;6174;49.058;8.524;2022-11-20T09:13:20;3.40;;;3.10;;
12222;SDS011;6174;49.058;8.524;2022-11-20T09:15:47;3.90;;;3.20;;
12222;SDS011;6174;49.058;8.524;2022-11-20T09:18:18;3.50;;;3.20;;
12222;SDS011;6174;49.058;8.524;2022-11-20T09:20:45;5.20;;;3.73;;
12222;SDS011;6174;49.058;8.524;2022-11-20T09:23:13;3.50;;;3.20;;
12222;SDS011;6174;49.058;8.524;2022-11-20T09:25:40;3.57;;;3.27;;
12222;SDS011;6174;49.058;8.524;2022-11-20T09:28:06;3.70;;;3.40;;
12222;SDS011;6174;49.058;8.524;2022-11-20T09:30:33;3.70;;;3.10;;
12222;SDS011;6174;49.058;8.524;2022-11-20T09:33:00;3.67;;;3.37;;
12222;SDS011;6174;49.058;8.524;2022-11-20T09:35:27;3.73;;;3.40;;
12222;SDS011;6174;49.058;8.524;2022-11-20T09:37:53;4.10;;;3.70;;
12222;SDS011;6174;49.058;8.524;2022-11-20T09:40:22;4.43;;;4.03;;
12222;SDS011;6174;49.058;8.524;2022-11-20T09:42:54;4.10;;;3.73;;
12222;SDS011;6174;49.058;8.524;2022-11-20T09:45:30;4.93;;;3.90;;
12222;SDS011;6174;49.058;8.524;2022-11-20T09:50:58;6.17;;;3.60;;
12222;SDS011;6174;49.058;8.524;2022-11-20T09:53:33;3.60;;;3.30;;
12222;SDS011;6174;49.058;8.524;2022-11-20T09:56:09;4.43;;;3.63;;
12222;SDS011;6174;49.058;8.524;2022-11-20T09:58:39;3.97;;;3.67;;
12222;SDS011;6174;49.058;8.524;2022-11-20T10:01:09;4.00;;;3.50;;
12222;SDS011;6174;49.058;8.524;2022-11-20T10:03:39;3.90;;;3.60;;
12222;SDS011;6174;49.058;8.524;2022-11-20T10:06:15;4.20;;;3.80;;
12222;SDS011;6174;49.058;8.524;2022-11-20T10:08:45;4.43;;;4.03;;
12222;SDS011;6174;49.058;8.524;2022-11-20T10:11:20;4.50;;;4.00;;
12222;SDS011;6174;49.058;8.524;2022-11-20T10:13:58;5.03;;;3.90;;
12222;SDS011;6174;49.058;8.524;2022-11-20T10:16:35;4.17;;;3.87;;
12222;SDS011;6174;49.058;8.524;2022-11-20T10:19:17;4.13;;;3.83;;
12222;SDS011;6174;49.058;8.524;2022-11-20T10:21:55;4.63;;;4.23;;
12222;SDS011;6174;49.058;8.524;2022-11-20T10:24:34;4.20;;;3.80;;
12222;SDS011;6174;49.058;8.524;2022-11-20T10:27:24;4.67;;;4.03;;
12222;SDS011;6174;49.058;8.524;2022-11-20T10:30:13;4.73;;;4.30;;
12222;SDS011;6174;49.058;8.524;2022-11-20T10:32:42;4.67;;;4.27;;
12222;SDS011;6174;49.058;8.524;2022-11-20T10:35:18;6.27;;;5.03;;
12222;SDS011;6174;49.058;8.524;2022-11-20T10:37:49;5.30;;;4.80;;
12222;SDS011;6174;49.058;8.524;2022-11-20T10:40:23;4.90;;;4.50;;
12222;SDS011;6174;49.058;8.524;2022-11-20T10:42:59;4.97;;;4.20;;
12222;SDS011;6174;49.058;8.524;2022-11-20T10:48:20;4.37;;;3.97;;
12222;SDS011;6174;49.058;8.524;2022-11-20T10:51:00;5.50;;;3.87;;
12222;SDS011;6174;49.058;8.524;2022-11-20T10:53:38;5.57;;;3.90;;
12222;SDS011;6174;49.058;8.524;2022-11-20T10:56:14;5.10;;;3.70;;
12222;SDS011;6174;49.058;8.524;2022-11-20T10:58:48;3.90;;;3.50;;
12222;SDS011;6174;49.058;8.524;2022-11-20T11:01:26;4.20;;;3.80;;
12222;SDS011;6174;49.058;8.524;2022-11-20T11:03:53;4.00;;;3.30;;
12222;SDS011;6174;49.058;8.524;2022-11-20T11:06:23;5.43;;;3.40;;
12222;SDS011;6174;49.058;8.524;2022-11-20T11:08:55;3.80;;;3.40;;
12222;SDS011;6174;49.058;8.524;2022-11-20T11:11:25;4.43;;;3.30;;
12222;SDS011;6174;49.058;8.524;2022-11-20T11:14:05;4.90;;;3.37;;
12222;SDS011;6174;49.058;8.524;2022-11-20T11:16:32;4.70;;;3.30;;
12222;SDS011;6174;49.058;8.524;2022-11-20T11:19:05;3.50;;;3.20;;
12222;SDS011;6174;49.058;8.524;2022-11-20T11:21:33;4.13;;;3.53;;
12222;SDS011;6174;49.058;8.524;2022-11-20T11:24:02;5.63;;;3.53;;
12222;SDS011;6174;49.058;8.524;2022-11-20T11:26:30;4.73;;;3.20;;
12222;SDS011;6174;49.058;8.524;2022-11-20T11:28:57;5.50;;;3.80;;
12222;SDS011;6174;49.058;8.524;2022-11-20T11:31:28;3.50;;;3.13;;
12222;SDS011;6174;49.058;8.524;2022-11-20T11:34:05;3.40;;;3.10;;
12222;SDS011;6174;49.058;8.524;2022-11-20T11:36:34;3.30;;;2.90;;
12222;SDS011;6174;49.058;8.524;2022-11-20T11:39:02;3.67;;;3.23;;
12222;SDS011;6174;49.058;8.524;2022-11-20T11:41:31;4.17;;;3.03;;
12222;SDS011;6174;49.058;8.524;2022-11-20T11:44:01;4.20;;;2.97;;
12222;SDS011;6174;49.058;8.524;2022-11-20T11:47:00;4.57;;;2.27;;
12222;SDS011;6174;49.058;8.524;2022-11-20T11:49:28;4.30;;;2.30;;
12222;SDS011;6174;49.058;8.524;2022-11-20T11:52:00;2.70;;;2.30;;
12222;SDS011;6174;49.058;8.524;2022-11-20T11:54:34;3.33;;;2.17;;
12222;SDS011;6174;49.058;8.524;2022-11-20T11:57:05;3.03;;;2.13;;
12222;SDS011;6174;49.058;8.524;2022-11-20T11:59:41;2.97;;;2.20;;
12222;SDS011;6174;49.058;8.524;2022-11-20T12:02:25;3.37;;;1.97;;
12222;SDS011;6174;49.058;8.524;2022-11-20T12:05:03;3.23;;;1.77;;
12222;SDS011;6174;49.058;8.524;2022-11-20T12:07:38;4.33;;;1.80;;
12222;SDS011;6174;49.058;8.524;2022-11-20T12:10:12;2.10;;;1.87;;
12222;SDS011;6174;49.058;8.524;2022-11-20T12:12:44;2.93;;;1.90;;
12222;SDS011;6174;49.058;8.524;2022-11-20T12:15:16;2.77;;;2.10;;
12222;SDS011;6174;49.058;8.524;2022-11-20T12:17:57;2.77;;;1.77;;
12222;SDS011;6174;49.058;8.524;2022-11-20T12:20:25;3.27;;;1.87;;
12222;SDS011;6174;49.058;8.524;2022-11-20T12:23:00;2.80;;;1.80;;
12222;SDS011;6174;49.058;8.524;2022-11-20T12:25:34;3.40;;;1.70;;
12222;SDS011;6174;49.058;8.524;2022-11-20T12:28:05;3.17;;;2.00;;
12222;SDS011;6174;49.058;8.524;2022-11-20T12:30:49;2.57;;;1.70;;
12222;SDS011;6174;49.058;8.524;2022-11-20T12:36:23;2.47;;;1.60;;
12222;SDS011;6174;49.058;8.524;2022-11-20T12:39:01;4.40;;;1.90;;
12222;SDS011;6174;49.058;8.524;2022-11-20T12:41:53;2.57;;;1.90;;
12222;SDS011;6174;49.058;8.524;2022-11-20T12:45:10;4.37;;;1.93;;
12222;SDS011;6174;49.058;8.524;2022-11-20T12:47:59;2.53;;;1.80;;
12222;SDS011;6174;49.058;8.524;2022-11-20T12:50:43;3.07;;;1.90;;
12222;SDS011;6174;49.058;8.524;2022-11-20T12:53:18;5.63;;;1.63;;
12222;SDS011;6174;49.058;8.524;2022-11-20T12:55:54;3.67;;;1.50;;
12222;SDS011;6174;49.058;8.524;2022-11-20T12:58:27;2.67;;;2.00;;
12222;SDS011;6174;49.058;8.524;2022-11-20T13:01:07;3.50;;;1.43;;
12222;SDS011;6174;49.058;8.524;2022-11-20T13:04:07;1.57;;;1.27;;
12222;SDS011;6174;49.058;8.524;2022-11-20T13:06:43;3.33;;;1.60;;
12222;SDS011;6174;49.058;8.524;2022-11-20T13:09:12;1.80;;;1.20;;
12222;SDS011;6174;49.058;8.524;2022-11-20T13:11:41;3.07;;;1.30;;
12222;SDS011;6174;49.058;8.524;2022-11-20T13:14:14;2.60;;;1.00;;
12222;SDS011;6174;49.058;8.524;2022-11-20T13:16:52;2.87;;;1.63;;
12222;SDS011;6174;49.058;8.524;2022-11-20T13:19:24;2.20;;;1.23;;
12222;SDS011;6174;49.058;8.524;2022-11-20T13:21:53;3.70;;;1.33;;
12222;SDS011;6174;49.058;8.524;2022-11-20T13:24:21;1.77;;;1.40;;
12222;SDS011;6174;49.058;8.524;2022-11-20T13:27:04;3.03;;;1.30;;
12222;SDS011;6174;49.058;8.524;2022-11-20T13:29:44;1.37;;;1.10;;
12222;SDS011;6174;49.058;8.524;2022-11-20T13:32:14;3.67;;;1.20;;
12222;SDS011;6174;49.058;8.524;2022-11-20T13:34:51;2.73;;;1.00;;
12222;SDS011;6174;49.058;8.524;2022-11-20T13:37:25;4.30;;;1.47;;
12222;SDS011;6174;49.058;8.524;2022-11-20T13:40:04;2.40;;;1.57;;
12222;SDS011;6174;49.058;8.524;2022-11-20T13:42:38;1.60;;;0.97;;
12222;SDS011;6174;49.058;8.524;2022-11-20T13:45:10;1.27;;;1.17;;
12222;SDS011;6174;49.058;8.524;2022-11-20T13:47:48;2.67;;;1.50;;
12222;SDS011;6174;49.058;8.524;2022-11-20T13:50:15;1.87;;;1.13;;
12222;SDS011;6174;49.058;8.524;2022-11-20T13:52:47;3.73;;;1.20;;
12222;SDS011;6174;49.058;8.524;2022-11-20T13:55:23;3.10;;;1.07;;
12222;SDS011;6174;49.058;8.524;2022-11-20T13:58:04;2.13;;;1.10;;
12222;SDS011;6174;49.058;8.524;2022-11-20T14:00:47;2.93;;;1.63;;
12222;SDS011;6174;49.058;8.524;2022-11-20T14:03:18;3.00;;;1.00;;
12222;SDS011;6174;49.058;8.524;2022-11-20T14:05:49;1.77;;;1.17;;
12222;SDS011;6174;49.058;8.524;2022-11-20T14:08:24;2.67;;;1.20;;
12222;SDS011;6174;49.058;8.524;2022-11-20T14:11:05;1.00;;;0.90;;
12222;SDS011;6174;49.058;8.524;2022-11-20T14:13:38;2.70;;;1.40;;
12222;SDS011;6174;49.058;8.524;2022-11-20T14:16:05;3.07;;;1.10;;
12222;SDS011;6174;49.058;8.524;2022-11-20T14:18:32;1.70;;;1.00;;
12222;SDS011;6174;49.058;8.524;2022-11-20T14:21:00;2.37;;;1.10;;
12222;SDS011;6174;49.058;8.524;2022-11-20T14:23:28;2.97;;;1.80;;
12222;SDS011;6174;49.058;8.524;2022-11-20T14:25:55;2.07;;;1.47;;
12222;SDS011;6174;49.058;8.524;2022-11-20T14:28:24;2.70;;;1.47;;
12222;SDS011;6174;49.058;8.524;2022-11-20T14:30:52;1.53;;;1.37;;
12222;SDS011;6174;49.058;8.524;2022-11-20T14:33:21;1.60;;;1.17;;
12222;SDS011;6174;49.058;8.524;2022-11-20T14:35:50;2.20;;;1.10;;
12222;SDS011;6174;49.058;8.524;2022-11-20T14:38:19;1.40;;;1.30;;
12222;SDS011;6174;49.058;8.524;2022-11-20T14:40:51;2.33;;;1.50;;
12222;SDS011;6174;49.058;8.524;2022-11-20T14:43:19;3.07;;;1.80;;
12222;SDS011;6174;49.058;8.524;2022-11-20T14:45:49;2.73;;;1.40;;
12222;SDS011;6174;49.058;8.524;2022-11-20T14:48:22;3.43;;;1.60;;
12222;SDS011;6174;49.058;8.524;2022-11-20T14:50:52;3.23;;;1.73;;
12222;SDS011;6174;49.058;8.524;2022-11-20T14:53:21;2.40;;;1.50;;
12222;SDS011;6174;49.058;8.524;2022-11-20T14:55:55;1.80;;;1.70;;
12222;SDS011;6174;49.058;8.524;2022-11-20T14:58:25;1.63;;;1.37;;
12222;SDS011;6174;49.058;8.524;2022-11-20T15:00:53;1.60;;;1.50;;
12222;SDS011;6174;49.058;8.524;2022-11-20T15:03:21;3.33;;;1.40;;
12222;SDS011;6174;49.058;8.524;2022-11-20T15:05:49;2.50;;;1.70;;
12222;SDS011;6174;49.058;8.524;2022-11-20T15:08:17;2.13;;;1.60;;
12222;SDS011;6174;49.058;8.524;2022-11-20T15:10:47;2.67;;;2.00;;
12222;SDS011;6174;49.058;8.524;2022-11-20T15:13:17;3.03;;;1.47;;
12222;SDS011;6174;49.058;8.524;2022-11-20T15:15:50;1.67;;;1.20;;
12222;SDS011;6174;49.058;8.524;2022-11-20T15:18:20;1.30;;;1.20;;
12222;SDS011;6174;49.058;8.524;2022-11-20T15:20:49;2.20;;;1.70;;
12222;SDS011;6174;49.058;8.524;2022-11-20T15:23:17;3.30;;;1.50;;
12222;SDS011;6174;49.058;8.524;2022-11-20T15:25:45;2.10;;;1.60;;
12222;SDS011;6174;49.058;8.524;2022-11-20T15:28:13;1.40;;;1.30;;
12222;SDS011;6174;49.058;8.524;2022-11-20T15:30:45;4.60;;;1.70;;
12222;SDS011;6174;49.058;8.524;2022-11-20T15:33:13;2.23;;;1.80;;
12222;SDS011;6174;49.058;8.524;2022-11-20T15:35:40;2.07;;;1.13;;
12222;SDS011;6174;49.058;8.524;2022-11-20T15:38:07;2.40;;;1.30;;
12222;SDS011;6174;49.058;8.524;2022-11-20T15:40:34;1.83;;;1.50;;
12222;SDS011;6174;49.058;8.524;2022-11-20T15:43:01;1.80;;;1.47;;
12222;SDS011;6174;49.058;8.524;2022-11-20T15:45:36;3.43;;;1.27;;
12222;SDS011;6174;49.058;8.524;2022-11-20T15:48:05;1.93;;;1.40;;
12222;SDS011;6174;49.058;8.524;2022-11-20T15:50:37;1.57;;;1.33;;
12222;SDS011;6174;49.058;8.524;2022-11-20T15:53:07;2.70;;;1.57;;
12222;SDS011;6174;49.058;8.524;2022-11-20T15:55:35;1.67;;;1.50;;
12222;SDS011;6174;49.058;8.524;2022-11-20T15:58:02;1.67;;;1.57;;
12222;SDS011;6174;49.058;8.524;2022-11-20T16:00:29;2.63;;;1.40;;
12222;SDS011;6174;49.058;8.524;2022-11-20T16:02:57;1.90;;;1.70;;
12222;SDS011;6174;49.058;8.524;2022-11-20T16:05:27;1.73;;;1.40;;
12222;SDS011;6174;49.058;8.524;2022-11-20T16:07:54;1.53;;;1.37;;
12222;SDS011;6174;49.058;8.524;2022-11-20T16:10:21;1.80;;;1.53;;
12222;SDS011;6174;49.058;8.524;2022-11-20T16:12:48;1.57;;;1.40;;
12222;SDS011;6174;49.058;8.524;2022-11-20T16:15:32;4.80;;;3.20;;
12222;SDS011;6174;49.058;8.524;2022-11-20T16:18:13;2.37;;;1.83;;
12222;SDS011;6174;49.058;8.524;2022-11-20T16:20:42;2.67;;;2.40;;
12222;SDS011;6174;49.058;8.524;2022-11-20T16:23:09;1.57;;;1.47;;
12222;SDS011;6174;49.058;8.524;2022-11-20T16:25:36;2.33;;;1.80;;
12222;SDS011;6174;49.058;8.524;2022-11-20T16:28:03;2.87;;;1.50;;
12222;SDS011;6174;49.058;8.524;2022-11-20T16:30:30;3.20;;;1.37;;
12222;SDS011;6174;49.058;8.524;2022-11-20T16:32:57;2.17;;;1.40;;
12222;SDS011;6174;49.058;8.524;2022-11-20T16:37:55;3.10;;;1.80;;
12222;SDS011;6174;49.058;8.524;2022-11-20T16:40:22;2.67;;;1.73;;
12222;SDS011;6174;49.058;8.524;2022-11-20T16:42:49;2.70;;;1.67;;
12222;SDS011;6174;49.058;8.524;2022-11-20T16:45:17;1.63;;;1.40;;
12222;SDS011;6174;49.058;8.524;2022-11-20T16:47:44;3.07;;;1.93;;
12222;SDS011;6174;49.058;8.524;2022-11-20T16:50:10;2.13;;;1.50;;
12222;SDS011;6174;49.058;8.524;2022-11-20T16:52:39;2.67;;;2.00;;
12222;SDS011;6174;49.058;8.524;2022-11-20T16:55:06;2.80;;;2.27;;
12222;SDS011;6174;49.058;8.524;2022-11-20T16:57:33;3.33;;;2.67;;
12222;SDS011;6174;49.058;8.524;2022-11-20T17:00:00;3.63;;;2.30;;
12222;SDS011;6174;49.058;8.524;2022-11-20T17:02:27;3.17;;;2.80;;
12222;SDS011;6174;49.058;8.524;2022-11-20T17:04:53;2.97;;;2.70;;
12222;SDS011;6174;49.058;8.524;2022-11-20T17:07:20;4.97;;;3.73;;
12222;SDS011;6174;49.058;8.524;2022-11-20T17:09:48;3.40;;;2.70;;
12222;SDS011;6174;49.058;8.524;2022-11-20T17:12:15;4.17;;;2.63;;
12222;SDS011;6174;49.058;8.524;2022-11-20T17:14:42;3.53;;;2.33;;
12222;SDS011;6174;49.058;8.524;2022-11-20T17:17:09;4.60;;;2.20;;
12222;SDS011;6174;49.058;8.524;2022-11-20T17:19:35;4.10;;;3.07;;
12222;SDS011;6174;49.058;8.524;2022-11-20T17:22:02;3.40;;;2.97;;
12222;SDS011;6174;49.058;8.524;2022-11-20T17:24:29;4.47;;;3.30;;
12222;SDS011;6174;49.058;8.524;2022-11-20T17:26:57;2.87;;;2.37;;
12222;SDS011;6174;49.058;8.524;2022-11-20T17:29:24;5.87;;;4.07;;
12222;SDS011;6174;49.058;8.524;2022-11-20T17:31:52;2.53;;;2.10;;
12222;SDS011;6174;49.058;8.524;2022-11-20T17:34:19;2.80;;;2.50;;
12222;SDS011;6174;49.058;8.524;2022-11-20T17:36:46;3.30;;;2.40;;
12222;SDS011;6174;49.058;8.524;2022-11-20T17:39:13;5.30;;;3.13;;
12222;SDS011;6174;49.058;8.524;2022-11-20T17:41:41;4.50;;;2.40;;
12222;SDS011;6174;49.058;8.524;2022-11-20T17:44:09;3.63;;;2.30;;
12222;SDS011;6174;49.058;8.524;2022-11-20T17:46:37;4.30;;;2.23;;
12222;SDS011;6174;49.058;8.524;2022-11-20T17:49:03;2.40;;;2.20;;
12222;SDS011;6174;49.058;8.524;2022-11-20T17:51:31;2.60;;;1.97;;
12222;SDS011;6174;49.058;8.524;2022-11-20T17:54:00;2.80;;;2.30;;
12222;SDS011;6174;49.058;8.524;2022-11-20T17:56:29;2.43;;;2.23;;
12222;SDS011;6174;49.058;8.524;2022-11-20T17:59:16;3.53;;;1.97;;
12222;SDS011;6174;49.058;8.524;2022-11-20T18:01:43;4.43;;;2.90;;
12222;SDS011;6174;49.058;8.524;2022-11-20T18:04:13;2.77;;;2.10;;
12222;SDS011;6174;49.058;8.524;2022-11-20T18:06:46;2.17;;;1.90;;
12222;SDS011;6174;49.058;8.524;2022-11-20T18:09:12;2.30;;;1.80;;
12222;SDS011;6174;49.058;8.524;2022-11-20T18:11:40;2.20;;;1.70;;
12222;SDS011;6174;49.058;8.524;2022-11-20T18:14:09;2.70;;;1.97;;
12222;SDS011;6174;49.058;8.524;2022-11-20T18:17:00;1.60;;;1.50;;
12222;SDS011;6174;49.058;8.524;2022-11-20T18:19:29;1.90;;;1.77;;
12222;SDS011;6174;49.058;8.524;2022-11-20T18:21:57;2.87;;;2.10;;
12222;SDS011;6174;49.058;8.524;2022-11-20T18:24:25;3.97;;;3.17;;
12222;SDS011;6174;49.058;8.524;2022-11-20T18:26:52;6.37;;;2.00;;
12222;SDS011;6174;49.058;8.524;2022-11-20T18:29:19;2.17;;;1.80;;
12222;SDS011;6174;49.058;8.524;2022-11-20T18:31:46;2.97;;;1.33;;
12222;SDS011;6174;49.058;8.524;2022-11-20T18:34:14;2.17;;;1.70;;
12222;SDS011;6174;49.058;8.524;2022-11-20T18:36:41;1.70;;;1.60;;
12222;SDS011;6174;49.058;8.524;2022-11-20T18:39:09;2.13;;;1.57;;
12222;SDS011;6174;49.058;8.524;2022-11-20T18:41:37;1.50;;;1.40;;
12222;SDS011;6174;49.058;8.524;2022-11-20T18:44:22;2.00;;;1.70;;
12222;SDS011;6174;49.058;8.524;2022-11-20T18:47:09;1.40;;;1.20;;
12222;SDS011;6174;49.058;8.524;2022-11-20T18:49:39;2.07;;;1.80;;
12222;SDS011;6174;49.058;8.524;2022-11-20T18:52:06;1.50;;;1.40;;
12222;SDS011;6174;49.058;8.524;2022-11-20T18:54:33;2.07;;;1.90;;
12222;SDS011;6174;49.058;8.524;2022-11-20T18:57:00;3.63;;;1.70;;
12222;SDS011;6174;49.058;8.524;2022-11-20T18:59:27;1.63;;;1.53;;
12222;SDS011;6174;49.058;8.524;2022-11-20T19:01:54;2.03;;;1.80;;
12222;SDS011;6174;49.058;8.524;2022-11-20T19:04:21;3.20;;;1.80;;
12222;SDS011;6174;49.058;8.524;2022-11-20T19:06:49;2.53;;;1.60;;
12222;SDS011;6174;49.058;8.524;2022-11-20T19:09:17;1.97;;;1.87;;
12222;SDS011;6174;49.058;8.524;2022-11-20T19:11:44;3.10;;;1.90;;
12222;SDS011;6174;49.058;8.524;2022-11-20T19:14:10;1.50;;;1.40;;
12222;SDS011;6174;49.058;8.524;2022-11-20T19:16:37;3.37;;;1.70;;
12222;SDS011;6174;49.058;8.524;2022-11-20T19:19:04;2.60;;;1.90;;
12222;SDS011;6174;49.058;8.524;2022-11-20T19:21:31;2.33;;;1.70;;
12222;SDS011;6174;49.058;8.524;2022-11-20T19:24:00;2.40;;;2.13;;
12222;SDS011;6174;49.058;8.524;2022-11-20T19:26:28;2.60;;;2.20;;
12222;SDS011;6174;49.058;8.524;2022-11-20T19:28:56;2.43;;;1.80;;
12222;SDS011;6174;49.058;8.524;2022-11-20T19:31:24;2.20;;;1.73;;
12222;SDS011;6174;49.058;8.524;2022-11-20T19:33:52;3.60;;;2.70;;
12222;SDS011;6174;49.058;8.524;2022-11-20T19:36:20;2.80;;;2.07;;
12222;SDS011;6174;49.058;8.524;2022-11-20T19:38:49;2.23;;;2.03;;
12222;SDS011;6174;49.058;8.524;2022-11-20T19:41:19;2.33;;;1.70;;
12222;SDS011;6174;49.058;8.524;2022-11-20T19:43:52;4.43;;;1.97;;
12222;SDS011;6174;49.058;8.524;2022-11-20T19:46:20;2.27;;;1.50;;
12222;SDS011;6174;49.058;8.524;2022-11-20T19:48:47;2.50;;;2.27;;
12222;SDS011;6174;49.058;8.524;2022-11-20T19:51:14;2.03;;;1.77;;
12222;SDS011;6174;49.058;8.524;2022-11-20T19:53:42;2.67;;;2.00;;
12222;SDS011;6174;49.058;8.524;2022-11-20T19:56:09;1.97;;;1.87;;
12222;SDS011;6174;49.058;8.524;2022-11-20T19:58:38;2.70;;;1.80;;
12222;SDS011;6174;49.058;8.524;2022-11-20T20:01:05;1.93;;;1.77;;
12222;SDS011;6174;49.058;8.524;2022-11-20T20:03:33;2.53;;;2.00;;
12222;SDS011;6174;49.058;8.524;2022-11-20T20:06:00;2.93;;;2.07;;
12222;SDS011;6174;49.058;8.524;2022-11-20T20:08:28;1.87;;;1.77;;
12222;SDS011;6174;49.058;8.524;2022-11-20T20:10:55;2.07;;;1.97;;
12222;SDS011;6174;49.058;8.524;2022-11-20T20:13:21;2.57;;;2.17;;
12222;SDS011;6174;49.058;8.524;2022-11-20T20:15:50;2.03;;;1.63;;
12222;SDS011;6174;49.058;8.524;2022-11-20T20:18:16;2.33;;;1.90;;
12222;SDS011;6174;49.058;8.524;2022-11-20T20:20:43;2.57;;;2.37;;
12222;SDS011;6174;49.058;8.524;2022-11-20T20:23:10;2.60;;;2.37;;
12222;SDS011;6174;49.058;8.524;2022-11-20T20:25:37;1.77;;;1.60;;
12222;SDS011;6174;49.058;8.524;2022-11-20T20:28:04;2.20;;;2.00;;
12222;SDS011;6174;49.058;8.524;2022-11-20T20:30:31;2.77;;;1.83;;
12222;SDS011;6174;49.058;8.524;2022-11-20T20:32:59;4.10;;;2.43;;
12222;SDS011;6174;49.058;8.524;2022-11-20T20:35:25;2.50;;;2.20;;
12222;SDS011;6174;49.058;8.524;2022-11-20T20:37:52;2.03;;;1.83;;
12222;SDS011;6174;49.058;8.524;2022-11-20T20:40:19;2.47;;;1.90;;
12222;SDS011;6174;49.058;8.524;2022-11-20T20:42:46;2.40;;;1.80;;
12222;SDS011;6174;49.058;8.524;2022-11-20T20:45:12;2.00;;;1.90;;
12222;SDS011;6174;49.058;8.524;2022-11-20T20:47:39;1.90;;;1.80;;
12222;SDS011;6174;49.058;8.524;2022-11-20T20:50:08;2.47;;;1.90;;
12222;SDS011;6174;49.058;8.524;2022-11-20T20:52:36;2.70;;;2.00;;
12222;SDS011;6174;49.058;8.524;2022-11-20T20:55:03;2.17;;;1.50;;
12222;SDS011;6174;49.058;8.524;2022-11-20T20:57:30;2.03;;;1.80;;
12222;SDS011;6174;49.058;8.524;2022-11-20T20:59:57;1.77;;;1.67;;
12222;SDS011;6174;49.058;8.524;2022-11-20T21:02:23;1.80;;;1.70;;
12222;SDS011;6174;49.058;8.524;2022-11-20T21:04:50;3.47;;;1.83;;
12222;SDS011;6174;49.058;8.524;2022-11-20T21:07:19;1.90;;;1.80;;
12222;SDS011;6174;49.058;8.524;2022-11-20T21:09:46;2.20;;;1.80;;
12222;SDS011;6174;49.058;8.524;2022-11-20T21:12:12;2.00;;;1.57;;
12222;SDS011;6174;49.058;8.524;2022-11-20T21:14:39;2.70;;;1.50;;
12222;SDS011;6174;49.058;8.524;2022-11-20T21:17:06;3.00;;;1.60;;
12222;SDS011;6174;49.058;8.524;2022-11-20T21:19:33;2.83;;;1.57;;
12222;SDS011;6174;49.058;8.524;2022-11-20T21:21:59;1.63;;;1.53;;
12222;SDS011;6174;49.058;8.524;2022-11-20T21:24:29;1.20;;;1.20;;
12222;SDS011;6174;49.058;8.524;2022-11-20T21:26:57;1.50;;;1.40;;
12222;SDS011;6174;49.058;8.524;2022-11-20T21:29:25;1.50;;;1.40;;